sensor_id;sensor_type;location;lat;lon;timestamp;P1;durP1;ratioP1;P2;durP2;ratioP2
2546;SDS011;1283;47.982;7.834;2022-12-18T00:01:36;53.50;;;16.77;;
2546;SDS011;1283;47.982;7.834;2022-12-18T00:04:04;49.58;;;16.23;;
2546;SDS011;1283;47.982;7.834;2022-12-18T00:06:33;41.05;;;14.85;;
2546;SDS011;1283;47.982;7.834;2022-12-18T00:09:00;45.20;;;15.63;;
2546;SDS011;1283;47.982;7.834;2022-12-18T00:11:28;44.33;;;14.68;;
2546;SDS011;1283;47.982;7.834;2022-12-18T00:13:56;45.35;;;16.92;;
2546;SDS011;1283;47.982;7.834;2022-12-18T00:16:25;46.40;;;16.58;;
2546;SDS011;1283;47.982;7.834;2022-12-18T00:18:53;50.15;;;16.13;;
2546;SDS011;1283;47.982;7.834;2022-12-18T00:21:21;47.85;;;16.73;;
2546;SDS011;1283;47.982;7.834;2022-12-18T00:23:48;42.70;;;16.42;;
2546;SDS011;1283;47.982;7.834;2022-12-18T00:26:16;48.08;;;17.17;;
2546;SDS011;1283;47.982;7.834;2022-12-18T00:28:44;43.10;;;16.48;;
2546;SDS011;1283;47.982;7.834;2022-12-18T00:31:11;37.67;;;15.38;;
2546;SDS011;1283;47.982;7.834;2022-12-18T00:33:40;42.40;;;15.55;;
2546;SDS011;1283;47.982;7.834;2022-12-18T00:36:07;37.85;;;15.13;;
2546;SDS011;1283;47.982;7.834;2022-12-18T00:38:35;38.97;;;14.60;;
2546;SDS011;1283;47.982;7.834;2022-12-18T00:41:03;41.50;;;15.65;;
2546;SDS011;1283;47.982;7.834;2022-12-18T00:43:30;43.53;;;16.48;;
2546;SDS011;1283;47.982;7.834;2022-12-18T00:45:55;48.30;;;14.05;;
2546;SDS011;1283;47.982;7.834;2022-12-18T00:48:22;41.25;;;15.60;;
2546;SDS011;1283;47.982;7.834;2022-12-18T00:50:50;38.00;;;13.93;;
2546;SDS011;1283;47.982;7.834;2022-12-18T00:53:17;36.92;;;14.27;;
2546;SDS011;1283;47.982;7.834;2022-12-18T00:55:44;48.13;;;15.77;;
2546;SDS011;1283;47.982;7.834;2022-12-18T00:58:11;38.08;;;14.63;;
2546;SDS011;1283;47.982;7.834;2022-12-18T01:00:38;32.88;;;13.40;;
2546;SDS011;1283;47.982;7.834;2022-12-18T01:03:05;34.58;;;13.70;;
2546;SDS011;1283;47.982;7.834;2022-12-18T01:05:31;36.53;;;14.18;;
2546;SDS011;1283;47.982;7.834;2022-12-18T01:08:00;38.80;;;13.25;;
2546;SDS011;1283;47.982;7.834;2022-12-18T01:10:26;34.65;;;13.88;;
2546;SDS011;1283;47.982;7.834;2022-12-18T01:12:53;37.45;;;14.32;;
2546;SDS011;1283;47.982;7.834;2022-12-18T01:15:19;35.88;;;13.55;;
2546;SDS011;1283;47.982;7.834;2022-12-18T01:17:46;35.05;;;13.77;;
2546;SDS011;1283;47.982;7.834;2022-12-18T01:20:13;36.72;;;13.63;;
2546;SDS011;1283;47.982;7.834;2022-12-18T01:22:39;39.95;;;13.52;;
2546;SDS011;1283;47.982;7.834;2022-12-18T01:25:08;38.35;;;13.20;;
2546;SDS011;1283;47.982;7.834;2022-12-18T01:27:34;39.90;;;14.95;;
2546;SDS011;1283;47.982;7.834;2022-12-18T01:30:01;33.63;;;13.57;;
2546;SDS011;1283;47.982;7.834;2022-12-18T01:32:28;35.78;;;14.32;;
2546;SDS011;1283;47.982;7.834;2022-12-18T01:34:55;39.78;;;14.90;;
2546;SDS011;1283;47.982;7.834;2022-12-18T01:37:22;41.85;;;13.07;;
2546;SDS011;1283;47.982;7.834;2022-12-18T01:39:48;31.85;;;13.07;;
2546;SDS011;1283;47.982;7.834;2022-12-18T01:42:18;35.17;;;13.52;;
2546;SDS011;1283;47.982;7.834;2022-12-18T01:44:55;40.10;;;14.57;;
2546;SDS011;1283;47.982;7.834;2022-12-18T01:47:25;41.20;;;14.50;;
2546;SDS011;1283;47.982;7.834;2022-12-18T01:49:54;41.35;;;14.75;;
2546;SDS011;1283;47.982;7.834;2022-12-18T01:52:21;37.00;;;12.27;;
2546;SDS011;1283;47.982;7.834;2022-12-18T01:54:48;52.05;;;16.90;;
2546;SDS011;1283;47.982;7.834;2022-12-18T01:57:16;50.42;;;16.90;;
2546;SDS011;1283;47.982;7.834;2022-12-18T01:59:44;52.40;;;17.40;;
2546;SDS011;1283;47.982;7.834;2022-12-18T02:02:11;51.85;;;17.25;;
2546;SDS011;1283;47.982;7.834;2022-12-18T02:04:38;49.95;;;16.73;;
2546;SDS011;1283;47.982;7.834;2022-12-18T02:07:06;50.50;;;15.95;;
2546;SDS011;1283;47.982;7.834;2022-12-18T02:09:38;46.33;;;16.05;;
2546;SDS011;1283;47.982;7.834;2022-12-18T02:12:10;41.90;;;15.40;;
2546;SDS011;1283;47.982;7.834;2022-12-18T02:14:42;48.88;;;15.32;;
2546;SDS011;1283;47.982;7.834;2022-12-18T02:17:13;48.28;;;17.23;;
2546;SDS011;1283;47.982;7.834;2022-12-18T02:19:45;56.20;;;16.30;;
2546;SDS011;1283;47.982;7.834;2022-12-18T02:22:21;47.55;;;15.80;;
2546;SDS011;1283;47.982;7.834;2022-12-18T02:24:55;46.10;;;15.20;;
2546;SDS011;1283;47.982;7.834;2022-12-18T02:27:27;45.88;;;15.07;;
2546;SDS011;1283;47.982;7.834;2022-12-18T02:29:55;46.50;;;15.35;;
2546;SDS011;1283;47.982;7.834;2022-12-18T02:32:24;43.17;;;14.57;;
2546;SDS011;1283;47.982;7.834;2022-12-18T02:34:52;48.00;;;16.38;;
2546;SDS011;1283;47.982;7.834;2022-12-18T02:37:22;44.28;;;15.18;;
2546;SDS011;1283;47.982;7.834;2022-12-18T02:39:49;47.33;;;15.93;;
2546;SDS011;1283;47.982;7.834;2022-12-18T02:42:18;41.70;;;16.30;;
2546;SDS011;1283;47.982;7.834;2022-12-18T02:44:47;50.05;;;18.08;;
2546;SDS011;1283;47.982;7.834;2022-12-18T02:47:15;52.22;;;16.48;;
2546;SDS011;1283;47.982;7.834;2022-12-18T02:49:44;50.63;;;17.30;;
2546;SDS011;1283;47.982;7.834;2022-12-18T02:52:18;48.05;;;15.88;;
2546;SDS011;1283;47.982;7.834;2022-12-18T02:54:56;41.45;;;15.07;;
2546;SDS011;1283;47.982;7.834;2022-12-18T02:57:28;42.58;;;15.23;;
2546;SDS011;1283;47.982;7.834;2022-12-18T03:00:02;41.95;;;15.38;;
2546;SDS011;1283;47.982;7.834;2022-12-18T03:02:32;47.13;;;15.18;;
2546;SDS011;1283;47.982;7.834;2022-12-18T03:05:04;42.88;;;15.63;;
2546;SDS011;1283;47.982;7.834;2022-12-18T03:07:35;47.45;;;16.38;;
2546;SDS011;1283;47.982;7.834;2022-12-18T03:10:04;60.78;;;19.27;;
2546;SDS011;1283;47.982;7.834;2022-12-18T03:12:34;42.65;;;15.30;;
2546;SDS011;1283;47.982;7.834;2022-12-18T03:15:04;32.97;;;14.05;;
2546;SDS011;1283;47.982;7.834;2022-12-18T03:17:35;40.60;;;15.18;;
2546;SDS011;1283;47.982;7.834;2022-12-18T03:20:04;47.03;;;15.15;;
2546;SDS011;1283;47.982;7.834;2022-12-18T03:22:32;49.03;;;16.00;;
2546;SDS011;1283;47.982;7.834;2022-12-18T03:25:00;47.25;;;15.82;;
2546;SDS011;1283;47.982;7.834;2022-12-18T03:27:27;45.33;;;16.40;;
2546;SDS011;1283;47.982;7.834;2022-12-18T03:29:56;48.35;;;17.10;;
2546;SDS011;1283;47.982;7.834;2022-12-18T03:32:35;46.03;;;16.52;;
2546;SDS011;1283;47.982;7.834;2022-12-18T03:35:05;45.78;;;15.23;;
2546;SDS011;1283;47.982;7.834;2022-12-18T03:37:33;43.63;;;17.02;;
2546;SDS011;1283;47.982;7.834;2022-12-18T03:39:59;53.75;;;16.73;;
2546;SDS011;1283;47.982;7.834;2022-12-18T03:42:27;37.15;;;15.77;;
2546;SDS011;1283;47.982;7.834;2022-12-18T03:44:57;48.33;;;16.90;;
2546;SDS011;1283;47.982;7.834;2022-12-18T03:47:27;54.05;;;17.15;;
2546;SDS011;1283;47.982;7.834;2022-12-18T03:49:57;48.42;;;16.75;;
2546;SDS011;1283;47.982;7.834;2022-12-18T03:52:28;42.65;;;15.02;;
2546;SDS011;1283;47.982;7.834;2022-12-18T03:54:56;44.40;;;15.27;;
2546;SDS011;1283;47.982;7.834;2022-12-18T03:57:24;50.83;;;16.67;;
2546;SDS011;1283;47.982;7.834;2022-12-18T03:59:53;44.30;;;14.57;;
2546;SDS011;1283;47.982;7.834;2022-12-18T04:02:22;51.53;;;14.75;;
2546;SDS011;1283;47.982;7.834;2022-12-18T04:04:51;40.20;;;15.38;;
2546;SDS011;1283;47.982;7.834;2022-12-18T04:07:19;40.75;;;14.30;;
2546;SDS011;1283;47.982;7.834;2022-12-18T04:09:46;45.30;;;15.32;;
2546;SDS011;1283;47.982;7.834;2022-12-18T04:12:14;42.63;;;14.27;;
2546;SDS011;1283;47.982;7.834;2022-12-18T04:14:41;40.30;;;14.05;;
2546;SDS011;1283;47.982;7.834;2022-12-18T04:17:08;38.17;;;12.45;;
2546;SDS011;1283;47.982;7.834;2022-12-18T04:19:35;37.08;;;13.57;;
2546;SDS011;1283;47.982;7.834;2022-12-18T04:22:01;35.30;;;13.07;;
2546;SDS011;1283;47.982;7.834;2022-12-18T04:24:29;33.72;;;12.57;;
2546;SDS011;1283;47.982;7.834;2022-12-18T04:26:55;32.45;;;11.93;;
2546;SDS011;1283;47.982;7.834;2022-12-18T04:29:22;30.40;;;10.80;;
2546;SDS011;1283;47.982;7.834;2022-12-18T04:31:48;27.88;;;10.52;;
2546;SDS011;1283;47.982;7.834;2022-12-18T04:34:15;29.40;;;11.82;;
2546;SDS011;1283;47.982;7.834;2022-12-18T04:36:41;35.95;;;13.77;;
2546;SDS011;1283;47.982;7.834;2022-12-18T04:39:08;30.77;;;11.98;;
2546;SDS011;1283;47.982;7.834;2022-12-18T04:41:35;41.35;;;12.32;;
2546;SDS011;1283;47.982;7.834;2022-12-18T04:44:02;30.83;;;12.73;;
2546;SDS011;1283;47.982;7.834;2022-12-18T04:46:29;33.10;;;12.93;;
2546;SDS011;1283;47.982;7.834;2022-12-18T04:48:55;31.88;;;11.70;;
2546;SDS011;1283;47.982;7.834;2022-12-18T04:51:22;32.53;;;12.02;;
2546;SDS011;1283;47.982;7.834;2022-12-18T04:53:48;33.30;;;12.85;;
2546;SDS011;1283;47.982;7.834;2022-12-18T04:56:15;34.65;;;12.60;;
2546;SDS011;1283;47.982;7.834;2022-12-18T04:58:43;32.35;;;11.57;;
2546;SDS011;1283;47.982;7.834;2022-12-18T05:01:10;29.02;;;10.52;;
2546;SDS011;1283;47.982;7.834;2022-12-18T05:03:37;22.83;;;9.00;;
2546;SDS011;1283;47.982;7.834;2022-12-18T05:06:04;27.50;;;10.75;;
2546;SDS011;1283;47.982;7.834;2022-12-18T05:08:32;33.25;;;11.77;;
2546;SDS011;1283;47.982;7.834;2022-12-18T05:10:59;26.02;;;11.55;;
2546;SDS011;1283;47.982;7.834;2022-12-18T05:13:26;24.77;;;9.75;;
2546;SDS011;1283;47.982;7.834;2022-12-18T05:15:53;28.10;;;10.88;;
2546;SDS011;1283;47.982;7.834;2022-12-18T05:18:20;27.08;;;10.85;;
2546;SDS011;1283;47.982;7.834;2022-12-18T05:20:47;30.58;;;10.40;;
2546;SDS011;1283;47.982;7.834;2022-12-18T05:23:15;25.10;;;10.40;;
2546;SDS011;1283;47.982;7.834;2022-12-18T05:25:41;26.30;;;9.95;;
2546;SDS011;1283;47.982;7.834;2022-12-18T05:28:08;25.20;;;10.02;;
2546;SDS011;1283;47.982;7.834;2022-12-18T05:30:34;24.45;;;9.18;;
2546;SDS011;1283;47.982;7.834;2022-12-18T05:33:02;27.52;;;10.23;;
2546;SDS011;1283;47.982;7.834;2022-12-18T05:35:28;28.85;;;10.70;;
2546;SDS011;1283;47.982;7.834;2022-12-18T05:37:55;25.75;;;11.30;;
2546;SDS011;1283;47.982;7.834;2022-12-18T05:40:21;23.13;;;9.68;;
2546;SDS011;1283;47.982;7.834;2022-12-18T05:42:48;20.48;;;8.98;;
2546;SDS011;1283;47.982;7.834;2022-12-18T05:45:14;20.50;;;9.13;;
2546;SDS011;1283;47.982;7.834;2022-12-18T05:47:41;21.20;;;8.77;;
2546;SDS011;1283;47.982;7.834;2022-12-18T05:50:09;28.67;;;9.55;;
2546;SDS011;1283;47.982;7.834;2022-12-18T05:52:35;18.65;;;8.57;;
2546;SDS011;1283;47.982;7.834;2022-12-18T05:55:02;25.75;;;9.50;;
2546;SDS011;1283;47.982;7.834;2022-12-18T05:57:29;26.15;;;9.73;;
2546;SDS011;1283;47.982;7.834;2022-12-18T05:59:55;22.48;;;8.23;;
2546;SDS011;1283;47.982;7.834;2022-12-18T06:02:22;23.08;;;9.05;;
2546;SDS011;1283;47.982;7.834;2022-12-18T06:04:48;22.35;;;8.73;;
2546;SDS011;1283;47.982;7.834;2022-12-18T06:07:16;26.20;;;9.55;;
2546;SDS011;1283;47.982;7.834;2022-12-18T06:09:42;29.17;;;10.57;;
2546;SDS011;1283;47.982;7.834;2022-12-18T06:12:09;30.13;;;11.38;;
2546;SDS011;1283;47.982;7.834;2022-12-18T06:14:36;37.15;;;12.35;;
2546;SDS011;1283;47.982;7.834;2022-12-18T06:17:03;33.35;;;12.00;;
2546;SDS011;1283;47.982;7.834;2022-12-18T06:19:29;37.88;;;12.35;;
2546;SDS011;1283;47.982;7.834;2022-12-18T06:21:56;40.47;;;13.82;;
2546;SDS011;1283;47.982;7.834;2022-12-18T06:24:25;40.67;;;14.45;;
2546;SDS011;1283;47.982;7.834;2022-12-18T06:26:51;48.95;;;14.90;;
2546;SDS011;1283;47.982;7.834;2022-12-18T06:29:18;43.75;;;13.85;;
2546;SDS011;1283;47.982;7.834;2022-12-18T06:31:44;42.83;;;13.85;;
2546;SDS011;1283;47.982;7.834;2022-12-18T06:34:10;49.03;;;15.20;;
2546;SDS011;1283;47.982;7.834;2022-12-18T06:36:37;41.40;;;14.65;;
2546;SDS011;1283;47.982;7.834;2022-12-18T06:39:03;48.88;;;15.27;;
2546;SDS011;1283;47.982;7.834;2022-12-18T06:41:31;45.78;;;14.20;;
2546;SDS011;1283;47.982;7.834;2022-12-18T06:43:58;40.05;;;14.18;;
2546;SDS011;1283;47.982;7.834;2022-12-18T06:46:24;44.50;;;14.00;;
2546;SDS011;1283;47.982;7.834;2022-12-18T06:48:50;52.08;;;15.07;;
2546;SDS011;1283;47.982;7.834;2022-12-18T06:51:18;37.00;;;13.30;;
2546;SDS011;1283;47.982;7.834;2022-12-18T06:53:45;42.45;;;14.68;;
2546;SDS011;1283;47.982;7.834;2022-12-18T06:56:12;47.13;;;15.02;;
2546;SDS011;1283;47.982;7.834;2022-12-18T06:58:40;40.63;;;14.55;;
2546;SDS011;1283;47.982;7.834;2022-12-18T07:01:07;37.88;;;13.05;;
2546;SDS011;1283;47.982;7.834;2022-12-18T07:03:35;41.25;;;12.32;;
2546;SDS011;1283;47.982;7.834;2022-12-18T07:06:01;42.55;;;13.15;;
2546;SDS011;1283;47.982;7.834;2022-12-18T07:08:28;35.72;;;12.32;;
2546;SDS011;1283;47.982;7.834;2022-12-18T07:10:55;36.30;;;12.00;;
2546;SDS011;1283;47.982;7.834;2022-12-18T07:13:21;30.90;;;12.13;;
2546;SDS011;1283;47.982;7.834;2022-12-18T07:15:49;35.67;;;11.52;;
2546;SDS011;1283;47.982;7.834;2022-12-18T07:18:16;32.90;;;11.95;;
2546;SDS011;1283;47.982;7.834;2022-12-18T07:20:42;27.77;;;11.02;;
2546;SDS011;1283;47.982;7.834;2022-12-18T07:23:09;35.88;;;12.23;;
2546;SDS011;1283;47.982;7.834;2022-12-18T07:25:35;29.48;;;11.05;;
2546;SDS011;1283;47.982;7.834;2022-12-18T07:28:02;31.45;;;12.13;;
2546;SDS011;1283;47.982;7.834;2022-12-18T07:30:29;39.33;;;12.07;;
2546;SDS011;1283;47.982;7.834;2022-12-18T07:32:56;32.97;;;11.50;;
2546;SDS011;1283;47.982;7.834;2022-12-18T07:35:23;34.22;;;11.98;;
2546;SDS011;1283;47.982;7.834;2022-12-18T07:37:50;37.70;;;12.90;;
2546;SDS011;1283;47.982;7.834;2022-12-18T07:40:16;39.75;;;14.32;;
2546;SDS011;1283;47.982;7.834;2022-12-18T07:42:42;29.85;;;11.32;;
2546;SDS011;1283;47.982;7.834;2022-12-18T07:45:09;35.25;;;12.13;;
2546;SDS011;1283;47.982;7.834;2022-12-18T07:47:36;31.92;;;12.02;;
2546;SDS011;1283;47.982;7.834;2022-12-18T07:50:04;29.83;;;11.38;;
2546;SDS011;1283;47.982;7.834;2022-12-18T07:52:31;32.95;;;13.10;;
2546;SDS011;1283;47.982;7.834;2022-12-18T07:54:58;34.50;;;13.30;;
2546;SDS011;1283;47.982;7.834;2022-12-18T07:57:24;34.83;;;13.13;;
2546;SDS011;1283;47.982;7.834;2022-12-18T07:59:51;37.10;;;13.75;;
2546;SDS011;1283;47.982;7.834;2022-12-18T08:02:17;42.10;;;13.38;;
2546;SDS011;1283;47.982;7.834;2022-12-18T08:04:44;31.58;;;11.88;;
2546;SDS011;1283;47.982;7.834;2022-12-18T08:07:11;30.85;;;12.55;;
2546;SDS011;1283;47.982;7.834;2022-12-18T08:09:39;41.65;;;14.52;;
2546;SDS011;1283;47.982;7.834;2022-12-18T08:12:05;39.67;;;13.73;;
2546;SDS011;1283;47.982;7.834;2022-12-18T08:14:32;38.33;;;14.20;;
2546;SDS011;1283;47.982;7.834;2022-12-18T08:16:58;33.05;;;12.50;;
2546;SDS011;1283;47.982;7.834;2022-12-18T08:19:25;42.10;;;14.05;;
2546;SDS011;1283;47.982;7.834;2022-12-18T08:21:51;44.35;;;15.07;;
2546;SDS011;1283;47.982;7.834;2022-12-18T08:24:19;37.72;;;14.63;;
2546;SDS011;1283;47.982;7.834;2022-12-18T08:26:45;36.13;;;14.75;;
2546;SDS011;1283;47.982;7.834;2022-12-18T08:29:12;34.13;;;13.52;;
2546;SDS011;1283;47.982;7.834;2022-12-18T08:31:38;35.30;;;14.20;;
2546;SDS011;1283;47.982;7.834;2022-12-18T08:34:05;36.05;;;14.82;;
2546;SDS011;1283;47.982;7.834;2022-12-18T08:36:31;42.67;;;15.45;;
2546;SDS011;1283;47.982;7.834;2022-12-18T08:38:58;46.67;;;15.20;;
2546;SDS011;1283;47.982;7.834;2022-12-18T08:41:25;33.80;;;13.20;;
2546;SDS011;1283;47.982;7.834;2022-12-18T08:43:52;27.40;;;12.57;;
2546;SDS011;1283;47.982;7.834;2022-12-18T08:46:37;32.10;;;12.90;;
2546;SDS011;1283;47.982;7.834;2022-12-18T08:49:04;30.38;;;12.18;;
2546;SDS011;1283;47.982;7.834;2022-12-18T08:51:31;24.70;;;10.90;;
2546;SDS011;1283;47.982;7.834;2022-12-18T08:53:58;32.95;;;11.93;;
2546;SDS011;1283;47.982;7.834;2022-12-18T08:56:26;37.50;;;12.60;;
2546;SDS011;1283;47.982;7.834;2022-12-18T08:58:53;32.80;;;12.63;;
2546;SDS011;1283;47.982;7.834;2022-12-18T09:01:19;29.92;;;12.32;;
2546;SDS011;1283;47.982;7.834;2022-12-18T09:03:46;30.20;;;12.38;;
2546;SDS011;1283;47.982;7.834;2022-12-18T09:06:13;37.05;;;12.88;;
2546;SDS011;1283;47.982;7.834;2022-12-18T09:08:40;39.80;;;15.15;;
2546;SDS011;1283;47.982;7.834;2022-12-18T09:11:10;35.40;;;14.88;;
2546;SDS011;1283;47.982;7.834;2022-12-18T09:13:39;37.33;;;13.98;;
2546;SDS011;1283;47.982;7.834;2022-12-18T09:16:06;46.35;;;15.25;;
2546;SDS011;1283;47.982;7.834;2022-12-18T09:18:32;34.65;;;14.00;;
2546;SDS011;1283;47.982;7.834;2022-12-18T09:20:59;35.03;;;13.98;;
2546;SDS011;1283;47.982;7.834;2022-12-18T09:23:25;39.33;;;15.95;;
2546;SDS011;1283;47.982;7.834;2022-12-18T09:25:52;42.70;;;15.00;;
2546;SDS011;1283;47.982;7.834;2022-12-18T09:28:24;41.35;;;15.93;;
2546;SDS011;1283;47.982;7.834;2022-12-18T09:30:52;38.30;;;14.77;;
2546;SDS011;1283;47.982;7.834;2022-12-18T09:33:19;45.53;;;15.63;;
2546;SDS011;1283;47.982;7.834;2022-12-18T09:35:47;41.20;;;15.40;;
2546;SDS011;1283;47.982;7.834;2022-12-18T09:38:14;36.95;;;14.95;;
2546;SDS011;1283;47.982;7.834;2022-12-18T09:40:42;37.40;;;13.93;;
2546;SDS011;1283;47.982;7.834;2022-12-18T09:43:12;40.65;;;14.82;;
2546;SDS011;1283;47.982;7.834;2022-12-18T09:45:41;36.85;;;14.23;;
2546;SDS011;1283;47.982;7.834;2022-12-18T09:48:11;36.33;;;14.07;;
2546;SDS011;1283;47.982;7.834;2022-12-18T09:50:42;36.45;;;15.00;;
2546;SDS011;1283;47.982;7.834;2022-12-18T09:53:12;32.50;;;14.30;;
2546;SDS011;1283;47.982;7.834;2022-12-18T09:55:41;38.40;;;14.32;;
2546;SDS011;1283;47.982;7.834;2022-12-18T09:58:13;38.50;;;15.02;;
2546;SDS011;1283;47.982;7.834;2022-12-18T10:00:43;36.05;;;14.77;;
2546;SDS011;1283;47.982;7.834;2022-12-18T10:03:11;43.70;;;15.00;;
2546;SDS011;1283;47.982;7.834;2022-12-18T10:05:40;35.17;;;14.45;;
2546;SDS011;1283;47.982;7.834;2022-12-18T10:08:10;44.08;;;16.63;;
2546;SDS011;1283;47.982;7.834;2022-12-18T10:10:40;37.90;;;14.85;;
2546;SDS011;1283;47.982;7.834;2022-12-18T10:13:15;42.55;;;15.02;;
2546;SDS011;1283;47.982;7.834;2022-12-18T10:15:49;34.58;;;14.77;;
2546;SDS011;1283;47.982;7.834;2022-12-18T10:18:24;34.22;;;15.38;;
2546;SDS011;1283;47.982;7.834;2022-12-18T10:20:57;40.00;;;16.35;;
2546;SDS011;1283;47.982;7.834;2022-12-18T10:23:26;36.38;;;17.02;;
2546;SDS011;1283;47.982;7.834;2022-12-18T10:25:55;35.17;;;15.65;;
2546;SDS011;1283;47.982;7.834;2022-12-18T10:28:27;42.08;;;17.27;;
2546;SDS011;1283;47.982;7.834;2022-12-18T10:30:55;42.95;;;17.40;;
2546;SDS011;1283;47.982;7.834;2022-12-18T10:33:27;39.15;;;15.93;;
2546;SDS011;1283;47.982;7.834;2022-12-18T10:35:54;32.20;;;14.30;;
2546;SDS011;1283;47.982;7.834;2022-12-18T10:38:22;30.40;;;13.23;;
2546;SDS011;1283;47.982;7.834;2022-12-18T10:40:51;29.63;;;13.43;;
2546;SDS011;1283;47.982;7.834;2022-12-18T10:43:22;34.70;;;14.60;;
2546;SDS011;1283;47.982;7.834;2022-12-18T10:46:12;35.08;;;16.00;;
2546;SDS011;1283;47.982;7.834;2022-12-18T10:48:47;33.53;;;14.65;;
2546;SDS011;1283;47.982;7.834;2022-12-18T10:51:19;32.93;;;15.07;;
2546;SDS011;1283;47.982;7.834;2022-12-18T10:53:50;38.30;;;15.65;;
2546;SDS011;1283;47.982;7.834;2022-12-18T10:56:19;39.90;;;16.60;;
2546;SDS011;1283;47.982;7.834;2022-12-18T10:58:47;39.13;;;16.35;;
2546;SDS011;1283;47.982;7.834;2022-12-18T11:01:22;36.70;;;16.80;;
2546;SDS011;1283;47.982;7.834;2022-12-18T11:04:00;36.92;;;17.15;;
2546;SDS011;1283;47.982;7.834;2022-12-18T11:06:28;37.85;;;17.85;;
2546;SDS011;1283;47.982;7.834;2022-12-18T11:08:58;40.78;;;17.33;;
2546;SDS011;1283;47.982;7.834;2022-12-18T11:11:25;40.35;;;17.67;;
2546;SDS011;1283;47.982;7.834;2022-12-18T11:13:56;40.70;;;17.38;;
2546;SDS011;1283;47.982;7.834;2022-12-18T11:16:25;48.60;;;18.23;;
2546;SDS011;1283;47.982;7.834;2022-12-18T11:18:52;44.67;;;19.00;;
2546;SDS011;1283;47.982;7.834;2022-12-18T11:21:20;45.88;;;19.65;;
2546;SDS011;1283;47.982;7.834;2022-12-18T11:23:47;45.40;;;19.20;;
2546;SDS011;1283;47.982;7.834;2022-12-18T11:26:15;42.28;;;18.33;;
2546;SDS011;1283;47.982;7.834;2022-12-18T11:28:43;38.08;;;17.33;;
2546;SDS011;1283;47.982;7.834;2022-12-18T11:31:18;47.45;;;19.65;;
2546;SDS011;1283;47.982;7.834;2022-12-18T11:33:51;43.08;;;18.15;;
2546;SDS011;1283;47.982;7.834;2022-12-18T11:36:23;44.05;;;19.42;;
2546;SDS011;1283;47.982;7.834;2022-12-18T11:38:52;35.10;;;16.95;;
2546;SDS011;1283;47.982;7.834;2022-12-18T11:41:21;44.92;;;18.50;;
2546;SDS011;1283;47.982;7.834;2022-12-18T11:44:13;44.80;;;18.00;;
2546;SDS011;1283;47.982;7.834;2022-12-18T11:46:43;42.25;;;18.20;;
2546;SDS011;1283;47.982;7.834;2022-12-18T11:49:14;46.35;;;18.33;;
2546;SDS011;1283;47.982;7.834;2022-12-18T11:51:47;50.08;;;18.63;;
2546;SDS011;1283;47.982;7.834;2022-12-18T11:54:16;42.00;;;17.98;;
2546;SDS011;1283;47.982;7.834;2022-12-18T11:56:44;40.35;;;18.02;;
2546;SDS011;1283;47.982;7.834;2022-12-18T11:59:15;38.45;;;16.75;;
2546;SDS011;1283;47.982;7.834;2022-12-18T12:01:48;41.63;;;17.38;;
2546;SDS011;1283;47.982;7.834;2022-12-18T12:04:24;37.55;;;16.27;;
2546;SDS011;1283;47.982;7.834;2022-12-18T12:07:00;43.17;;;18.10;;
2546;SDS011;1283;47.982;7.834;2022-12-18T12:09:34;40.60;;;17.95;;
2546;SDS011;1283;47.982;7.834;2022-12-18T12:12:10;39.35;;;18.10;;
2546;SDS011;1283;47.982;7.834;2022-12-18T12:14:46;40.53;;;17.38;;
2546;SDS011;1283;47.982;7.834;2022-12-18T12:17:20;46.33;;;20.10;;
2546;SDS011;1283;47.982;7.834;2022-12-18T12:19:54;43.20;;;19.20;;
2546;SDS011;1283;47.982;7.834;2022-12-18T12:22:28;45.88;;;18.27;;
2546;SDS011;1283;47.982;7.834;2022-12-18T12:25:02;45.42;;;18.55;;
2546;SDS011;1283;47.982;7.834;2022-12-18T12:27:38;40.47;;;18.13;;
2546;SDS011;1283;47.982;7.834;2022-12-18T12:30:10;45.33;;;18.42;;
2546;SDS011;1283;47.982;7.834;2022-12-18T12:32:45;41.70;;;19.00;;
2546;SDS011;1283;47.982;7.834;2022-12-18T12:35:22;45.42;;;19.45;;
2546;SDS011;1283;47.982;7.834;2022-12-18T12:37:58;37.33;;;17.23;;
2546;SDS011;1283;47.982;7.834;2022-12-18T12:40:32;54.22;;;19.48;;
2546;SDS011;1283;47.982;7.834;2022-12-18T12:43:01;45.58;;;19.92;;
2546;SDS011;1283;47.982;7.834;2022-12-18T12:45:41;44.05;;;18.40;;
2546;SDS011;1283;47.982;7.834;2022-12-18T12:48:14;39.55;;;18.10;;
2546;SDS011;1283;47.982;7.834;2022-12-18T12:50:43;45.13;;;17.80;;
2546;SDS011;1283;47.982;7.834;2022-12-18T12:53:14;44.65;;;18.63;;
2546;SDS011;1283;47.982;7.834;2022-12-18T12:55:47;47.83;;;17.92;;
2546;SDS011;1283;47.982;7.834;2022-12-18T12:58:14;42.58;;;18.73;;
2546;SDS011;1283;47.982;7.834;2022-12-18T13:00:44;47.38;;;19.40;;
2546;SDS011;1283;47.982;7.834;2022-12-18T13:03:18;42.20;;;18.55;;
2546;SDS011;1283;47.982;7.834;2022-12-18T13:06:02;44.50;;;19.52;;
2546;SDS011;1283;47.982;7.834;2022-12-18T13:08:34;54.42;;;20.17;;
2546;SDS011;1283;47.982;7.834;2022-12-18T13:11:27;48.03;;;18.92;;
2546;SDS011;1283;47.982;7.834;2022-12-18T13:14:20;45.25;;;18.77;;
2546;SDS011;1283;47.982;7.834;2022-12-18T13:16:48;44.80;;;18.92;;
2546;SDS011;1283;47.982;7.834;2022-12-18T13:19:19;41.80;;;18.38;;
2546;SDS011;1283;47.982;7.834;2022-12-18T13:21:51;42.95;;;17.50;;
2546;SDS011;1283;47.982;7.834;2022-12-18T13:24:22;42.97;;;18.40;;
2546;SDS011;1283;47.982;7.834;2022-12-18T13:26:51;45.53;;;17.42;;
2546;SDS011;1283;47.982;7.834;2022-12-18T13:29:40;40.65;;;17.90;;
2546;SDS011;1283;47.982;7.834;2022-12-18T13:32:18;38.15;;;17.65;;
2546;SDS011;1283;47.982;7.834;2022-12-18T13:34:46;48.97;;;19.92;;
2546;SDS011;1283;47.982;7.834;2022-12-18T13:43:22;40.45;;;17.95;;
2546;SDS011;1283;47.982;7.834;2022-12-18T13:45:59;44.33;;;18.73;;
2546;SDS011;1283;47.982;7.834;2022-12-18T13:48:27;44.35;;;19.42;;
2546;SDS011;1283;47.982;7.834;2022-12-18T13:50:58;39.65;;;16.45;;
2546;SDS011;1283;47.982;7.834;2022-12-18T13:53:26;40.17;;;17.58;;
2546;SDS011;1283;47.982;7.834;2022-12-18T13:55:55;38.83;;;17.27;;
2546;SDS011;1283;47.982;7.834;2022-12-18T13:58:23;42.20;;;16.77;;
2546;SDS011;1283;47.982;7.834;2022-12-18T14:00:50;44.75;;;17.95;;
2546;SDS011;1283;47.982;7.834;2022-12-18T14:03:18;43.35;;;17.60;;
2546;SDS011;1283;47.982;7.834;2022-12-18T14:05:46;43.25;;;17.73;;
2546;SDS011;1283;47.982;7.834;2022-12-18T14:08:22;40.47;;;17.35;;
2546;SDS011;1283;47.982;7.834;2022-12-18T14:10:51;38.78;;;18.00;;
2546;SDS011;1283;47.982;7.834;2022-12-18T14:13:19;35.45;;;16.50;;
2546;SDS011;1283;47.982;7.834;2022-12-18T14:15:50;40.58;;;19.17;;
2546;SDS011;1283;47.982;7.834;2022-12-18T14:18:19;41.08;;;17.40;;
2546;SDS011;1283;47.982;7.834;2022-12-18T14:20:48;42.97;;;18.85;;
2546;SDS011;1283;47.982;7.834;2022-12-18T14:23:25;39.22;;;16.92;;
2546;SDS011;1283;47.982;7.834;2022-12-18T14:25:53;37.58;;;17.70;;
2546;SDS011;1283;47.982;7.834;2022-12-18T14:28:20;41.78;;;16.88;;
2546;SDS011;1283;47.982;7.834;2022-12-18T14:30:47;35.95;;;16.42;;
2546;SDS011;1283;47.982;7.834;2022-12-18T14:33:16;30.80;;;15.18;;
2546;SDS011;1283;47.982;7.834;2022-12-18T14:35:52;32.70;;;15.70;;
2546;SDS011;1283;47.982;7.834;2022-12-18T14:38:21;34.17;;;15.10;;
2546;SDS011;1283;47.982;7.834;2022-12-18T14:40:53;37.13;;;14.77;;
2546;SDS011;1283;47.982;7.834;2022-12-18T14:43:29;38.13;;;15.57;;
2546;SDS011;1283;47.982;7.834;2022-12-18T14:45:57;37.20;;;16.63;;
2546;SDS011;1283;47.982;7.834;2022-12-18T14:48:32;33.30;;;15.52;;
2546;SDS011;1283;47.982;7.834;2022-12-18T14:51:02;32.42;;;15.57;;
2546;SDS011;1283;47.982;7.834;2022-12-18T14:53:34;36.42;;;15.98;;
2546;SDS011;1283;47.982;7.834;2022-12-18T14:56:02;38.78;;;16.63;;
2546;SDS011;1283;47.982;7.834;2022-12-18T14:58:29;39.90;;;17.60;;
2546;SDS011;1283;47.982;7.834;2022-12-18T15:00:55;34.42;;;16.98;;
2546;SDS011;1283;47.982;7.834;2022-12-18T15:03:22;43.50;;;16.63;;
2546;SDS011;1283;47.982;7.834;2022-12-18T15:05:49;36.28;;;16.67;;